Time;durP1;ratioP1;P1;durP2;ratioP2;P2;SDS_P1;SDS_P2;PMS_P1;PMS_P2;Temp;Humidity;BMP_temperature;BMP_pressure;BME280_temperature;BME280_humidity;BME280_pressure;Samples;Min_cycle;Max_cycle;Signal;HPM_P1;HPM_P2
2023/10/07 00:01:11;;;;;;;;;;;17.90;99.90;;;;;;5116130;28;19924;-41
2023/10/07 00:03:38;;;;;;;;;;;17.90;99.90;;;;;;5116070;28;20333;-41
2023/10/07 00:06:09;;;;;;;;;;;17.90;99.90;;;;;;5114391;28;19923;-41
2023/10/07 00:08:35;;;;;;;;;;;17.90;99.90;;;;;;5115638;28;20002;-41
2023/10/07 00:11:01;;;;;;;;;;;17.90;99.90;;;;;;5115319;28;20424;-41
2023/10/07 00:13:31;;;;;;;;;;;17.90;99.90;;;;;;5115582;28;19924;-41
2023/10/07 00:15:58;;;;;;;;;;;17.90;99.90;;;;;;5115435;27;19924;-41
2023/10/07 00:18:24;;;;;;;;;;;17.90;99.90;;;;;;5115439;28;19923;-41
2023/10/07 00:20:51;;;;;;;;;;;17.90;99.90;;;;;;5115212;28;19931;-41
2023/10/07 00:23:22;;;;;;;;;;;17.90;99.90;;;;;;5115218;28;19949;-41
2023/10/07 00:25:51;;;;;;;;;;;17.90;99.90;;;;;;5115410;28;20019;-41
2023/10/07 00:28:32;;;;;;;;;;;17.90;99.90;;;;;;5115406;28;19923;-41
2023/10/07 00:31:05;;;;;;;;;;;17.90;99.90;;;;;;5114345;28;19939;-41
2023/10/07 00:33:50;;;;;;;;;;;17.90;99.90;;;;;;5115229;28;20020;-42
2023/10/07 00:36:33;;;;;;;;;;;17.90;99.90;;;;;;5115077;28;20049;-41
2023/10/07 00:39:06;;;;;;;;;;;17.90;99.90;;;;;;5114929;27;19923;-41
2023/10/07 00:41:36;;;;;;;;;;;17.90;99.90;;;;;;5114060;28;19931;-42
2023/10/07 00:44:16;;;;;;;;;;;17.90;99.90;;;;;;5114180;28;19923;-41
2023/10/07 00:46:42;;;;;;;;;;;17.90;99.90;;;;;;5115030;28;19971;-41
2023/10/07 00:49:20;;;;;;;;;;;17.80;99.90;;;;;;5114953;28;20005;-40
2023/10/07 00:51:46;;;;;;;;;;;17.80;99.90;;;;;;5113751;28;19924;-41
2023/10/07 00:54:18;;;;;;;;;;;17.80;99.90;;;;;;5114620;28;19924;-41
2023/10/07 00:57:03;;;;;;;;;;;17.80;99.90;;;;;;5114650;28;19923;-41
2023/10/07 00:59:30;;;;;;;;;;;17.80;99.90;;;;;;5115083;28;19924;-41
2023/10/07 01:01:57;;;;;;;;;;;17.80;99.90;;;;;;5114735;28;19924;-41
2023/10/07 01:04:24;;;;;;;;;;;17.70;99.90;;;;;;5114626;28;19924;-42
2023/10/07 01:06:59;;;;;;;;;;;17.70;99.90;;;;;;5114586;28;20271;-41
2023/10/07 01:09:24;;;;;;;;;;;17.70;99.90;;;;;;5114387;28;19924;-41
2023/10/07 01:11:57;;;;;;;;;;;17.70;99.90;;;;;;5114192;28;19931;-41
2023/10/07 01:14:33;;;;;;;;;;;17.70;99.90;;;;;;5114684;28;20378;-41
2023/10/07 01:17:00;;;;;;;;;;;17.60;99.90;;;;;;5114858;28;19949;-41
2023/10/07 01:19:44;;;;;;;;;;;17.60;99.90;;;;;;5114454;28;19924;-41
2023/10/07 01:22:18;;;;;;;;;;;17.60;99.90;;;;;;5114624;28;19930;-41
2023/10/07 01:24:46;;;;;;;;;;;17.50;99.90;;;;;;5114508;28;19924;-41
2023/10/07 01:29:44;;;;;;;;;;;17.50;99.90;;;;;;5114681;28;19923;-41
2023/10/07 01:32:15;;;;;;;;;;;17.50;99.90;;;;;;5113206;28;20015;-40
2023/10/07 01:34:47;;;;;;;;;;;17.50;99.90;;;;;;5114564;28;20006;-41
2023/10/07 01:37:21;;;;;;;;;;;17.50;99.90;;;;;;5113876;28;19931;-41
2023/10/07 01:39:49;;;;;;;;;;;17.50;99.90;;;;;;5114664;28;19924;-41
2023/10/07 01:43:02;;;;;;;;;;;17.50;99.90;;;;;;5114352;28;19925;-41
2023/10/07 01:45:09;;;;;;;;;;;17.50;99.90;;;;;;5103493;28;19979;-41
2023/10/07 01:47:35;;;;;;;;;;;17.50;99.90;;;;;;5114552;28;19930;-42
2023/10/07 01:50:03;;;;;;;;;;;17.50;99.90;;;;;;5114274;28;20394;-41
2023/10/07 01:52:29;;;;;;;;;;;17.50;99.90;;;;;;5113263;28;19975;-41
2023/10/07 01:54:55;;;;;;;;;;;17.50;99.90;;;;;;5114167;28;19992;-41
2023/10/07 01:57:21;;;;;;;;;;;17.50;99.90;;;;;;5114036;28;19932;-41
2023/10/07 01:59:46;;;;;;;;;;;17.60;99.90;;;;;;5114830;28;19924;-41
2023/10/07 02:02:14;;;;;;;;;;;17.50;99.90;;;;;;5114195;28;19924;-41
2023/10/07 02:04:39;;;;;;;;;;;17.60;99.90;;;;;;5113866;28;19930;-42
2023/10/07 02:07:05;;;;;;;;;;;17.60;99.90;;;;;;5114372;28;19924;-41
2023/10/07 02:09:40;;;;;;;;;;;17.60;99.90;;;;;;5114240;28;19934;-41
2023/10/07 02:12:09;;;;;;;;;;;17.70;99.90;;;;;;5114106;28;19996;-41
2023/10/07 02:14:35;;;;;;;;;;;17.70;99.90;;;;;;5114074;28;19924;-41
2023/10/07 02:17:01;;;;;;;;;;;17.70;99.90;;;;;;5113767;28;20378;-41
2023/10/07 02:19:28;;;;;;;;;;;17.70;99.90;;;;;;5114040;28;19970;-41
2023/10/07 02:21:59;;;;;;;;;;;17.70;99.90;;;;;;5115642;28;19970;-41
2023/10/07 02:24:31;;;;;;;;;;;17.80;99.90;;;;;;5117583;28;19931;-41
2023/10/07 02:26:59;;;;;;;;;;;17.80;99.90;;;;;;5118210;28;19954;-41
2023/10/07 02:29:26;;;;;;;;;;;17.80;99.90;;;;;;5117632;27;19943;-41
2023/10/07 02:31:54;;;;;;;;;;;17.80;99.90;;;;;;5117578;28;19924;-41
2023/10/07 02:34:28;;;;;;;;;;;17.80;99.90;;;;;;5117568;28;19976;-41
2023/10/07 02:37:10;;;;;;;;;;;17.80;99.90;;;;;;5117404;28;19923;-41
2023/10/07 02:39:45;;;;;;;;;;;17.80;99.90;;;;;;5117472;28;19928;-41
2023/10/07 02:42:21;;;;;;;;;;;17.80;99.90;;;;;;5117353;28;19975;-41
2023/10/07 02:47:47;;;;;;;;;;;17.90;99.90;;;;;;5117348;28;19928;-41
2023/10/07 02:50:13;;;;;;;;;;;17.90;99.90;;;;;;5117249;28;19923;-42
2023/10/07 02:52:39;;;;;;;;;;;17.90;99.90;;;;;;5117343;28;20335;-41
2023/10/07 02:55:13;;;;;;;;;;;17.90;99.90;;;;;;5117185;28;20302;-41
2023/10/07 02:57:41;;;;;;;;;;;17.90;99.90;;;;;;5116996;28;19974;-42
2023/10/07 03:00:18;;;;;;;;;;;17.90;99.90;;;;;;5116837;28;19931;-41
2023/10/07 03:03:08;;;;;;;;;;;17.90;99.90;;;;;;5116991;28;19924;-41
2023/10/07 03:05:35;;;;;;;;;;;17.90;99.90;;;;;;5117189;27;19958;-41
2023/10/07 03:08:04;;;;;;;;;;;17.90;99.90;;;;;;5116932;28;20413;-41
2023/10/07 03:10:44;;;;;;;;;;;17.90;99.90;;;;;;5116654;28;19924;-41
2023/10/07 03:13:15;;;;;;;;;;;17.90;99.90;;;;;;5116961;28;19931;-41
2023/10/07 03:15:44;;;;;;;;;;;17.90;99.90;;;;;;5116798;28;20034;-41
2023/10/07 03:18:29;;;;;;;;;;;17.90;99.90;;;;;;5116634;28;19935;-41
2023/10/07 03:21:06;;;;;;;;;;;17.90;99.90;;;;;;5116657;28;19930;-41
2023/10/07 03:23:34;;;;;;;;;;;17.90;99.90;;;;;;5116581;28;20363;-42
2023/10/07 03:28:30;;;;;;;;;;;17.90;99.90;;;;;;5116341;28;19931;-43
2023/10/07 03:30:56;;;;;;;;;;;17.90;99.90;;;;;;5115032;28;19966;-41
2023/10/07 03:34:08;;;;;;;;;;;17.90;99.90;;;;;;5115487;28;19993;-42
2023/10/07 03:36:30;;;;;;;;;;;17.90;99.90;;;;;;5110557;28;19978;-41
2023/10/07 03:39:16;;;;;;;;;;;17.90;99.90;;;;;;5116303;28;19927;-41
2023/10/07 03:41:52;;;;;;;;;;;17.90;99.90;;;;;;5116051;28;19924;-41
2023/10/07 03:44:18;;;;;;;;;;;17.90;99.90;;;;;;5116022;28;20375;-41
2023/10/07 03:46:44;;;;;;;;;;;17.90;99.90;;;;;;5116088;28;19946;-41
2023/10/07 03:49:11;;;;;;;;;;;17.90;99.90;;;;;;5115935;28;20351;-41
2023/10/07 03:51:36;;;;;;;;;;;17.90;99.90;;;;;;5115947;28;19924;-41
2023/10/07 03:54:22;;;;;;;;;;;17.90;99.90;;;;;;5115540;28;20030;-41
2023/10/07 03:56:49;;;;;;;;;;;17.90;99.90;;;;;;5116172;28;20011;-41
2023/10/07 03:59:15;;;;;;;;;;;17.90;99.90;;;;;;5114877;28;19986;-42
2023/10/07 04:01:42;;;;;;;;;;;17.90;99.90;;;;;;5116068;28;20367;-41
2023/10/07 04:04:11;;;;;;;;;;;17.90;99.90;;;;;;5115664;28;19931;-41
2023/10/07 04:06:37;;;;;;;;;;;17.90;99.90;;;;;;5115562;28;20325;-41
2023/10/07 04:09:06;;;;;;;;;;;17.90;99.90;;;;;;5114569;28;20438;-41
2023/10/07 04:11:48;;;;;;;;;;;17.90;99.90;;;;;;5115606;28;19930;-42
2023/10/07 04:17:12;;;;;;;;;;;17.90;99.90;;;;;;5106122;28;20463;-41
2023/10/07 04:19:40;;;;;;;;;;;17.90;99.90;;;;;;5115211;28;20358;-41
2023/10/07 04:22:08;;;;;;;;;;;17.90;99.90;;;;;;5115413;28;20390;-41
2023/10/07 04:24:35;;;;;;;;;;;17.90;99.90;;;;;;5114497;28;19969;-41
2023/10/07 04:27:03;;;;;;;;;;;17.90;99.90;;;;;;5115231;28;20068;-41
2023/10/07 04:29:29;;;;;;;;;;;17.90;99.90;;;;;;5115097;28;20010;-42
2023/10/07 04:31:55;;;;;;;;;;;17.90;99.90;;;;;;5115270;28;19923;-41
2023/10/07 04:34:21;;;;;;;;;;;17.90;99.90;;;;;;5115527;28;19928;-41
2023/10/07 04:39:29;;;;;;;;;;;17.90;99.90;;;;;;5114811;27;20370;-41
2023/10/07 04:41:59;;;;;;;;;;;17.90;99.90;;;;;;5114881;28;19924;-41
2023/10/07 04:49:57;;;;;;;;;;;17.90;99.90;;;;;;5115001;28;20276;-41
2023/10/07 04:52:28;;;;;;;;;;;17.90;99.90;;;;;;5114904;28;19927;-42
2023/10/07 04:54:58;;;;;;;;;;;17.90;99.90;;;;;;5114023;28;19930;-42
2023/10/07 05:00:17;;;;;;;;;;;17.80;99.90;;;;;;5114706;28;20295;-41
2023/10/07 05:02:43;;;;;;;;;;;17.80;99.90;;;;;;5114588;28;19924;-41
2023/10/07 05:05:13;;;;;;;;;;;17.80;99.90;;;;;;5114567;28;19924;-41
2023/10/07 05:07:39;;;;;;;;;;;17.80;99.90;;;;;;5114335;28;19924;-42
2023/10/07 05:10:08;;;;;;;;;;;17.80;99.90;;;;;;5114666;28;19924;-41
2023/10/07 05:12:34;;;;;;;;;;;17.80;99.90;;;;;;5114027;28;19938;-41
2023/10/07 05:15:00;;;;;;;;;;;17.80;99.90;;;;;;5114445;28;19924;-41
2023/10/07 05:17:28;;;;;;;;;;;17.80;99.90;;;;;;5114546;28;19970;-42
2023/10/07 05:19:58;;;;;;;;;;;17.80;99.90;;;;;;5113475;28;19930;-42
2023/10/07 05:22:24;;;;;;;;;;;17.80;99.90;;;;;;5114479;28;19928;-41
2023/10/07 05:24:56;;;;;;;;;;;17.80;99.90;;;;;;5114740;28;19930;-41
2023/10/07 05:27:23;;;;;;;;;;;17.80;99.90;;;;;;5114650;28;19931;-42
2023/10/07 05:29:49;;;;;;;;;;;17.80;99.90;;;;;;5114313;28;19976;-42
2023/10/07 05:32:15;;;;;;;;;;;17.90;99.90;;;;;;5114171;28;20287;-42
2023/10/07 05:34:41;;;;;;;;;;;17.80;99.90;;;;;;5114521;28;19924;-42
2023/10/07 05:37:11;;;;;;;;;;;17.80;99.90;;;;;;5114455;28;19947;-42
2023/10/07 05:39:43;;;;;;;;;;;17.90;99.90;;;;;;5114420;28;19931;-41
2023/10/07 05:42:11;;;;;;;;;;;17.90;99.90;;;;;;5114355;28;19931;-42
2023/10/07 05:44:38;;;;;;;;;;;17.90;99.90;;;;;;5114197;28;19931;-41
2023/10/07 05:47:05;;;;;;;;;;;17.90;99.90;;;;;;5113497;28;19927;-42
2023/10/07 05:49:31;;;;;;;;;;;17.90;99.90;;;;;;5114286;28;20085;-41
2023/10/07 05:51:58;;;;;;;;;;;17.90;99.90;;;;;;5114049;28;20333;-42
2023/10/07 05:54:24;;;;;;;;;;;17.90;99.90;;;;;;5114338;28;19924;-41
2023/10/07 05:56:50;;;;;;;;;;;17.90;99.90;;;;;;5115696;28;19924;-41
2023/10/07 05:59:15;;;;;;;;;;;17.90;99.90;;;;;;5118126;28;19924;-41
2023/10/07 06:01:41;;;;;;;;;;;17.90;99.90;;;;;;5118179;28;19946;-41
2023/10/07 06:04:07;;;;;;;;;;;17.90;99.90;;;;;;5118027;28;19923;-41
2023/10/07 06:06:33;;;;;;;;;;;17.80;99.90;;;;;;5118577;28;19924;-41
2023/10/07 06:09:02;;;;;;;;;;;17.80;99.90;;;;;;5117883;28;19976;-43
2023/10/07 06:11:32;;;;;;;;;;;17.80;99.90;;;;;;5116974;28;20373;-41
2023/10/07 06:13:59;;;;;;;;;;;17.70;99.90;;;;;;5116801;28;19931;-41
2023/10/07 06:16:24;;;;;;;;;;;17.70;99.90;;;;;;5117877;28;19931;-41
2023/10/07 06:18:50;;;;;;;;;;;17.70;99.90;;;;;;5116739;28;20283;-41
2023/10/07 06:21:28;;;;;;;;;;;17.70;99.90;;;;;;5117722;28;19924;-41
2023/10/07 06:23:54;;;;;;;;;;;17.70;99.90;;;;;;5117764;28;19931;-41
2023/10/07 06:26:19;;;;;;;;;;;17.70;99.90;;;;;;5117678;28;20313;-42
2023/10/07 06:28:48;;;;;;;;;;;17.70;99.90;;;;;;5117382;28;19928;-42
2023/10/07 06:31:17;;;;;;;;;;;17.70;99.90;;;;;;5117634;28;20387;-42
2023/10/07 06:33:44;;;;;;;;;;;17.60;99.90;;;;;;5117540;27;19924;-41
2023/10/07 06:36:14;;;;;;;;;;;17.60;99.90;;;;;;5117414;28;19928;-42
2023/10/07 06:38:52;;;;;;;;;;;17.60;99.90;;;;;;5117360;28;19928;-42
2023/10/07 06:41:18;;;;;;;;;;;17.60;99.90;;;;;;5117534;28;19930;-42
2023/10/07 06:43:49;;;;;;;;;;;17.60;99.90;;;;;;5117466;28;19953;-42
2023/10/07 06:46:20;;;;;;;;;;;17.60;99.90;;;;;;5117308;28;19924;-42
2023/10/07 06:48:48;;;;;;;;;;;17.50;99.90;;;;;;5117324;28;19927;-41
2023/10/07 06:51:14;;;;;;;;;;;17.50;99.90;;;;;;5117212;28;19979;-41
2023/10/07 06:53:42;;;;;;;;;;;17.60;99.90;;;;;;5117005;28;19924;-41
2023/10/07 06:56:20;;;;;;;;;;;17.50;99.90;;;;;;5117157;28;19977;-41
2023/10/07 06:58:53;;;;;;;;;;;17.50;99.90;;;;;;5117109;28;19927;-41
2023/10/07 07:04:15;;;;;;;;;;;17.50;99.90;;;;;;5116524;28;19924;-41
2023/10/07 07:06:44;;;;;;;;;;;17.50;99.90;;;;;;5116809;28;19931;-41
2023/10/07 07:11:57;;;;;;;;;;;17.50;99.90;;;;;;5116634;28;20286;-41
2023/10/07 07:14:28;;;;;;;;;;;17.60;99.90;;;;;;5116631;28;20290;-41
2023/10/07 07:16:57;;;;;;;;;;;17.60;99.90;;;;;;5116499;28;20023;-41
2023/10/07 07:19:25;;;;;;;;;;;17.60;99.90;;;;;;5116992;27;19924;-42
2023/10/07 07:21:51;;;;;;;;;;;17.60;99.90;;;;;;5116404;28;20402;-41
2023/10/07 07:24:25;;;;;;;;;;;17.60;99.90;;;;;;5116635;28;19977;-41
2023/10/07 07:26:52;;;;;;;;;;;17.60;99.90;;;;;;5116327;28;20375;-41
2023/10/07 07:29:18;;;;;;;;;;;17.60;99.90;;;;;;5116516;28;19924;-41
2023/10/07 07:31:46;;;;;;;;;;;17.60;99.90;;;;;;5116445;28;19931;-41
2023/10/07 07:34:27;;;;;;;;;;;17.60;99.90;;;;;;5116265;28;19928;-41
2023/10/07 07:37:01;;;;;;;;;;;17.60;99.90;;;;;;5116218;28;19923;-42
2023/10/07 07:39:30;;;;;;;;;;;17.60;99.90;;;;;;5114936;28;20015;-41
2023/10/07 07:41:56;;;;;;;;;;;17.70;99.90;;;;;;5116189;27;19931;-41
2023/10/07 07:44:34;;;;;;;;;;;17.70;99.90;;;;;;5116236;28;19993;-41
2023/10/07 07:47:02;;;;;;;;;;;17.70;99.90;;;;;;5116242;28;20317;-41
2023/10/07 07:49:31;;;;;;;;;;;17.70;99.90;;;;;;5116045;28;19953;-41
2023/10/07 07:51:58;;;;;;;;;;;17.70;99.90;;;;;;5115892;28;19923;-41
2023/10/07 07:54:24;;;;;;;;;;;17.80;99.90;;;;;;5115061;28;20393;-42
2023/10/07 07:56:50;;;;;;;;;;;17.80;99.90;;;;;;5116037;28;19924;-42
2023/10/07 07:59:17;;;;;;;;;;;17.80;99.90;;;;;;5115712;28;19947;-41
2023/10/07 08:01:53;;;;;;;;;;;17.80;99.90;;;;;;5115941;28;19971;-41
2023/10/07 08:04:37;;;;;;;;;;;17.90;99.90;;;;;;5115733;28;20011;-42
2023/10/07 08:07:11;;;;;;;;;;;17.90;99.90;;;;;;5115811;28;20369;-41
2023/10/07 08:09:37;;;;;;;;;;;17.90;99.90;;;;;;5115751;28;19923;-42
2023/10/07 08:12:09;;;;;;;;;;;17.90;99.90;;;;;;5115652;28;19976;-41
2023/10/07 08:14:37;;;;;;;;;;;17.90;99.90;;;;;;5115775;28;20340;-41
2023/10/07 08:17:08;;;;;;;;;;;17.90;99.90;;;;;;5115474;28;19930;-41
2023/10/07 08:19:34;;;;;;;;;;;18.00;99.90;;;;;;5115124;28;19933;-42
2023/10/07 08:22:03;;;;;;;;;;;18.00;99.90;;;;;;5115515;28;19924;-41
2023/10/07 08:24:31;;;;;;;;;;;18.00;99.90;;;;;;5114361;28;19924;-41
2023/10/07 08:26:59;;;;;;;;;;;18.00;99.90;;;;;;5115284;28;20410;-42
2023/10/07 08:29:32;;;;;;;;;;;18.10;99.90;;;;;;5115104;28;19924;-41
2023/10/07 08:32:34;;;;;;;;;;;18.10;99.90;;;;;;5114174;28;20361;-41
2023/10/07 08:34:59;;;;;;;;;;;18.10;99.90;;;;;;5115148;28;19924;-41
2023/10/07 08:37:32;;;;;;;;;;;18.10;99.90;;;;;;5115016;28;19924;-41
2023/10/07 08:40:08;;;;;;;;;;;18.10;99.90;;;;;;5115144;28;19924;-42
2023/10/07 08:42:36;;;;;;;;;;;18.10;99.90;;;;;;5115337;28;19923;-42
2023/10/07 08:45:01;;;;;;;;;;;18.10;99.90;;;;;;5115113;28;20301;-41
2023/10/07 08:47:39;;;;;;;;;;;18.10;99.90;;;;;;5114998;28;20022;-41
2023/10/07 08:50:06;;;;;;;;;;;18.10;99.90;;;;;;5115018;28;19930;-42
2023/10/07 08:52:32;;;;;;;;;;;18.20;99.90;;;;;;5114923;28;19923;-41
2023/10/07 08:54:59;;;;;;;;;;;18.20;99.90;;;;;;5114959;28;20375;-42
2023/10/07 08:57:25;;;;;;;;;;;18.20;99.90;;;;;;5114921;28;19923;-41
2023/10/07 08:59:56;;;;;;;;;;;18.20;99.90;;;;;;5114696;28;19928;-41
2023/10/07 09:02:27;;;;;;;;;;;18.20;99.90;;;;;;5114719;28;19934;-42
2023/10/07 09:04:54;;;;;;;;;;;18.20;99.90;;;;;;5113460;28;20378;-42
2023/10/07 09:07:20;;;;;;;;;;;18.20;99.90;;;;;;5115172;28;19924;-42
2023/10/07 09:09:46;;;;;;;;;;;18.30;99.90;;;;;;5114780;28;20030;-41
2023/10/07 09:12:14;;;;;;;;;;;18.30;99.90;;;;;;5114667;28;20025;-41
2023/10/07 09:14:55;;;;;;;;;;;18.30;99.90;;;;;;5114646;28;19924;-41
2023/10/07 09:17:24;;;;;;;;;;;18.30;99.90;;;;;;5114677;28;19924;-42
2023/10/07 09:19:52;;;;;;;;;;;18.30;99.90;;;;;;5114535;28;19931;-43
2023/10/07 09:22:24;;;;;;;;;;;18.20;99.90;;;;;;5113512;28;20367;-43
2023/10/07 09:24:54;;;;;;;;;;;18.30;99.90;;;;;;5114502;28;20363;-42
2023/10/07 09:27:36;;;;;;;;;;;18.30;99.90;;;;;;5114390;28;19964;-41
2023/10/07 09:30:34;;;;;;;;;;;18.30;99.90;;;;;;5114374;28;19928;-41
2023/10/07 09:32:55;;;;;;;;;;;18.30;99.90;;;;;;5117904;28;19928;-41
2023/10/07 09:35:25;;;;;;;;;;;18.30;99.90;;;;;;5118704;28;19924;-41
2023/10/07 09:37:59;;;;;;;;;;;18.30;99.90;;;;;;5117685;28;19935;-41
2023/10/07 09:43:33;;;;;;;;;;;18.30;99.90;;;;;;5118615;28;19923;-42
2023/10/07 09:45:58;;;;;;;;;;;18.30;99.90;;;;;;5118327;28;20001;-42
2023/10/07 09:48:26;;;;;;;;;;;18.30;99.90;;;;;;5118335;28;19963;-42
2023/10/07 09:50:55;;;;;;;;;;;18.30;99.90;;;;;;5118249;28;20018;-41
2023/10/07 09:53:36;;;;;;;;;;;18.30;99.90;;;;;;5118361;28;19924;-41
2023/10/07 09:56:11;;;;;;;;;;;18.30;99.90;;;;;;5118262;28;19923;-41
2023/10/07 09:58:42;;;;;;;;;;;18.30;99.90;;;;;;5118125;28;19931;-42
2023/10/07 10:01:29;;;;;;;;;;;18.30;99.90;;;;;;5118172;28;19924;-41
2023/10/07 10:04:13;;;;;;;;;;;18.30;99.90;;;;;;5117791;28;20378;-42
2023/10/07 10:07:00;;;;;;;;;;;18.30;99.90;;;;;;5118102;28;19930;-42
2023/10/07 10:09:42;;;;;;;;;;;18.30;99.90;;;;;;5118035;28;20018;-41
2023/10/07 10:12:18;;;;;;;;;;;18.30;99.90;;;;;;5118540;28;19930;-41
2023/10/07 10:14:56;;;;;;;;;;;18.30;99.90;;;;;;5118317;28;19931;-42
2023/10/07 10:17:53;;;;;;;;;;;18.30;99.90;;;;;;5116969;28;19930;-41
2023/10/07 10:20:27;;;;;;;;;;;18.30;99.90;;;;;;5104832;27;19930;-41
2023/10/07 10:22:53;;;;;;;;;;;18.30;99.90;;;;;;5117696;28;20324;-42
2023/10/07 10:25:36;;;;;;;;;;;18.40;99.90;;;;;;5117710;28;20006;-41
2023/10/07 10:28:02;;;;;;;;;;;18.40;99.90;;;;;;5117791;28;19927;-41
2023/10/07 10:30:28;;;;;;;;;;;18.40;99.90;;;;;;5117572;28;20015;-41
2023/10/07 10:32:57;;;;;;;;;;;18.40;99.90;;;;;;5117684;28;19975;-41
2023/10/07 10:35:27;;;;;;;;;;;18.50;99.90;;;;;;5117538;28;19931;-41
2023/10/07 10:37:59;;;;;;;;;;;18.50;99.90;;;;;;5117387;28;19968;-41
2023/10/07 10:40:31;;;;;;;;;;;18.50;99.90;;;;;;5117291;28;20370;-42
2023/10/07 10:42:57;;;;;;;;;;;18.60;99.90;;;;;;5116293;28;19923;-42
2023/10/07 10:45:29;;;;;;;;;;;18.60;99.90;;;;;;5117420;28;19997;-41
2023/10/07 10:47:57;;;;;;;;;;;18.60;99.90;;;;;;5117321;28;19935;-41
2023/10/07 10:50:24;;;;;;;;;;;18.60;99.90;;;;;;5117293;28;19924;-41
2023/10/07 10:52:50;;;;;;;;;;;18.60;99.90;;;;;;5117131;27;19961;-42
2023/10/07 10:55:16;;;;;;;;;;;18.70;99.90;;;;;;5117018;28;20371;-41
2023/10/07 10:57:41;;;;;;;;;;;18.70;99.90;;;;;;5117003;28;20015;-41
2023/10/07 11:00:19;;;;;;;;;;;18.80;99.90;;;;;;5117033;28;20401;-41
2023/10/07 11:02:46;;;;;;;;;;;18.80;99.90;;;;;;5117371;28;19966;-41
2023/10/07 11:05:12;;;;;;;;;;;18.70;99.90;;;;;;5116725;28;19927;-41
2023/10/07 11:07:40;;;;;;;;;;;18.70;99.90;;;;;;5116078;28;22879;-41
2023/10/07 11:10:07;;;;;;;;;;;18.80;99.90;;;;;;5116759;28;20315;-42
2023/10/07 11:12:33;;;;;;;;;;;18.70;99.90;;;;;;5116871;28;19923;-41
2023/10/07 11:15:13;;;;;;;;;;;18.70;99.90;;;;;;5116925;28;19924;-41
2023/10/07 11:17:51;;;;;;;;;;;18.70;99.90;;;;;;5116708;28;19924;-41
2023/10/07 11:20:19;;;;;;;;;;;18.70;99.90;;;;;;5116578;28;20023;-41
2023/10/07 11:22:45;;;;;;;;;;;18.60;99.90;;;;;;5116490;28;20321;-41
2023/10/07 11:25:16;;;;;;;;;;;18.60;99.90;;;;;;5116644;28;19924;-41
2023/10/07 11:27:42;;;;;;;;;;;18.60;99.90;;;;;;5116699;28;19927;-41
2023/10/07 11:30:11;;;;;;;;;;;18.60;99.90;;;;;;5116693;28;19931;-41
2023/10/07 11:32:40;;;;;;;;;;;18.60;99.90;;;;;;5115595;28;19924;-42
2023/10/07 11:35:29;;;;;;;;;;;18.50;99.90;;;;;;5116202;28;20022;-42
2023/10/07 11:37:58;;;;;;;;;;;18.50;99.90;;;;;;5116410;28;20396;-41
2023/10/07 11:40:23;;;;;;;;;;;18.50;99.90;;;;;;5116553;28;19924;-41
2023/10/07 11:42:49;;;;;;;;;;;18.50;99.90;;;;;;5116317;28;19977;-41
2023/10/07 11:45:16;;;;;;;;;;;18.50;99.90;;;;;;5116213;28;19924;-41
2023/10/07 11:47:43;;;;;;;;;;;18.50;99.90;;;;;;5115891;28;19931;-41
2023/10/07 11:50:08;;;;;;;;;;;18.50;99.90;;;;;;5116022;28;20282;-41
2023/10/07 11:52:37;;;;;;;;;;;18.50;99.90;;;;;;5116187;28;19924;-41
2023/10/07 11:55:07;;;;;;;;;;;18.50;99.90;;;;;;5115444;28;19931;-42
2023/10/07 11:57:34;;;;;;;;;;;18.50;99.90;;;;;;5115883;28;19932;-42
2023/10/07 11:59:59;;;;;;;;;;;18.50;99.90;;;;;;5114982;28;20004;-41
2023/10/07 12:02:25;;;;;;;;;;;18.50;99.90;;;;;;5115765;28;19928;-41
2023/10/07 12:04:51;;;;;;;;;;;18.50;99.90;;;;;;5115795;28;20024;-42
2023/10/07 12:07:17;;;;;;;;;;;18.50;99.90;;;;;;5115750;28;19924;-42
2023/10/07 12:09:46;;;;;;;;;;;18.50;99.90;;;;;;5114726;28;19961;-42
2023/10/07 12:12:17;;;;;;;;;;;18.50;99.90;;;;;;5115929;28;19930;-41
2023/10/07 12:14:42;;;;;;;;;;;18.50;99.90;;;;;;5115578;28;19963;-41
2023/10/07 12:17:08;;;;;;;;;;;18.50;99.90;;;;;;5115449;28;20350;-42
2023/10/07 12:19:35;;;;;;;;;;;18.40;99.90;;;;;;5115453;28;19979;-41
2023/10/07 12:22:03;;;;;;;;;;;18.40;99.90;;;;;;5115622;28;19971;-41
2023/10/07 12:24:29;;;;;;;;;;;18.40;99.90;;;;;;5115507;28;19923;-42
2023/10/07 12:26:56;;;;;;;;;;;18.40;99.90;;;;;;5115572;28;19977;-41
2023/10/07 12:29:23;;;;;;;;;;;18.40;99.90;;;;;;5115319;28;20290;-42
2023/10/07 12:31:49;;;;;;;;;;;18.40;99.90;;;;;;5115195;28;19924;-41
2023/10/07 12:34:18;;;;;;;;;;;18.50;99.90;;;;;;5115267;28;19931;-42
2023/10/07 12:36:44;;;;;;;;;;;18.50;99.90;;;;;;5115461;28;19963;-41
2023/10/07 12:39:14;;;;;;;;;;;18.50;99.90;;;;;;5113988;28;20417;-42
2023/10/07 12:41:40;;;;;;;;;;;18.60;99.90;;;;;;5115080;28;19975;-42
2023/10/07 12:44:09;;;;;;;;;;;18.60;99.90;;;;;;5114983;28;19931;-41
2023/10/07 12:46:39;;;;;;;;;;;18.60;99.90;;;;;;5115108;28;19992;-42
2023/10/07 12:49:14;;;;;;;;;;;18.60;99.90;;;;;;5115183;28;19979;-41
2023/10/07 12:51:40;;;;;;;;;;;18.60;99.90;;;;;;5115108;28;19924;-42
2023/10/07 12:54:09;;;;;;;;;;;18.60;99.90;;;;;;5114884;28;20019;-41
2023/10/07 12:56:36;;;;;;;;;;;18.60;99.90;;;;;;5114765;28;20389;-42
2023/10/07 12:59:17;;;;;;;;;;;18.50;99.90;;;;;;5114813;28;19923;-41
2023/10/07 13:01:55;;;;;;;;;;;18.60;99.90;;;;;;5114743;28;20385;-41
2023/10/07 13:04:34;;;;;;;;;;;18.50;99.90;;;;;;5114528;28;20451;-41
2023/10/07 13:07:10;;;;;;;;;;;18.50;99.90;;;;;;5113645;28;19931;-41
2023/10/07 13:09:40;;;;;;;;;;;18.50;99.90;;;;;;5114941;28;19931;-41
2023/10/07 13:12:11;;;;;;;;;;;18.50;99.90;;;;;;5114704;28;19977;-41
2023/10/07 13:14:40;;;;;;;;;;;18.40;99.90;;;;;;5114713;28;19963;-41
2023/10/07 13:17:06;;;;;;;;;;;18.40;99.90;;;;;;5114664;28;19923;-41
2023/10/07 13:19:36;;;;;;;;;;;18.40;99.90;;;;;;5114396;28;19985;-41
2023/10/07 13:22:05;;;;;;;;;;;18.30;99.90;;;;;;5113807;28;20018;-42
2023/10/07 13:24:34;;;;;;;;;;;18.30;99.90;;;;;;5113689;28;20390;-41
2023/10/07 13:27:02;;;;;;;;;;;18.30;99.90;;;;;;5114558;28;19931;-41
2023/10/07 13:29:27;;;;;;;;;;;18.30;99.90;;;;;;5114232;28;20374;-41
2023/10/07 13:31:53;;;;;;;;;;;18.20;99.90;;;;;;5114380;28;19950;-41
2023/10/07 13:34:20;;;;;;;;;;;18.20;99.90;;;;;;5114418;28;20026;-41
2023/10/07 13:36:46;;;;;;;;;;;18.20;99.90;;;;;;5114588;28;19967;-41
2023/10/07 13:39:18;;;;;;;;;;;18.20;99.90;;;;;;5114379;28;19975;-41
2023/10/07 13:41:44;;;;;;;;;;;18.20;99.90;;;;;;5114396;28;19924;-41
2023/10/07 13:44:14;;;;;;;;;;;18.20;99.90;;;;;;5114442;28;19924;-41
2023/10/07 13:46:41;;;;;;;;;;;18.20;99.90;;;;;;5114176;28;20354;-42
2023/10/07 13:49:08;;;;;;;;;;;18.20;99.90;;;;;;5114170;28;20375;-41
2023/10/07 13:51:38;;;;;;;;;;;18.10;99.90;;;;;;5114504;28;20442;-41
2023/10/07 13:54:22;;;;;;;;;;;18.10;99.90;;;;;;5114321;28;19954;-41
2023/10/07 13:56:53;;;;;;;;;;;18.10;99.90;;;;;;5114289;28;19924;-41
2023/10/07 13:59:18;;;;;;;;;;;18.10;99.90;;;;;;5113967;28;20312;-41
2023/10/07 14:01:46;;;;;;;;;;;18.10;99.90;;;;;;5114298;28;20003;-41
2023/10/07 14:04:19;;;;;;;;;;;18.10;99.90;;;;;;5114353;28;19928;-41
2023/10/07 14:06:46;;;;;;;;;;;18.10;99.90;;;;;;5114290;28;20010;-41
2023/10/07 14:09:24;;;;;;;;;;;18.10;99.90;;;;;;5114195;28;19928;-41
2023/10/07 14:11:49;;;;;;;;;;;18.10;99.90;;;;;;5113946;28;19923;-41
2023/10/07 14:14:15;;;;;;;;;;;18.00;99.90;;;;;;5114125;28;19949;-41
2023/10/07 14:16:41;;;;;;;;;;;18.00;99.90;;;;;;5114350;28;19981;-41
2023/10/07 14:19:06;;;;;;;;;;;18.00;99.90;;;;;;5117556;28;19932;-42
2023/10/07 14:21:33;;;;;;;;;;;18.00;99.90;;;;;;5117943;28;20395;-41
2023/10/07 14:24:03;;;;;;;;;;;18.00;99.90;;;;;;5117861;28;19927;-41
2023/10/07 14:26:32;;;;;;;;;;;18.00;99.90;;;;;;5117734;28;19923;-41
2023/10/07 14:29:01;;;;;;;;;;;18.00;99.90;;;;;;5117729;27;19924;-41
2023/10/07 14:31:27;;;;;;;;;;;17.90;99.90;;;;;;5117730;28;20383;-42
2023/10/07 14:33:54;;;;;;;;;;;18.00;99.90;;;;;;5116679;28;19924;-41
2023/10/07 14:36:21;;;;;;;;;;;17.90;99.90;;;;;;5117172;27;19931;-42
2023/10/07 14:38:48;;;;;;;;;;;17.90;99.90;;;;;;5117094;28;19947;-41
2023/10/07 14:41:14;;;;;;;;;;;17.90;99.90;;;;;;5117171;28;19924;-41
2023/10/07 14:43:40;;;;;;;;;;;17.90;99.90;;;;;;5117322;28;19931;-41
2023/10/07 14:46:13;;;;;;;;;;;17.90;99.90;;;;;;5117333;28;19924;-41
2023/10/07 14:48:45;;;;;;;;;;;17.90;99.90;;;;;;5117370;28;20436;-43
2023/10/07 14:51:11;;;;;;;;;;;17.90;99.90;;;;;;5117171;28;19970;-41
2023/10/07 14:53:37;;;;;;;;;;;17.90;99.90;;;;;;5117002;28;20413;-41
2023/10/07 14:56:09;;;;;;;;;;;17.90;99.90;;;;;;5117172;28;19938;-41
2023/10/07 14:58:36;;;;;;;;;;;17.90;99.90;;;;;;5117209;28;20398;-41
2023/10/07 15:01:02;;;;;;;;;;;17.90;99.90;;;;;;5116932;28;19928;-42
2023/10/07 15:03:28;;;;;;;;;;;17.90;99.90;;;;;;5117009;28;20401;-41